createdAt,value
2023-04-30T00:02:15.061Z,88.40
2023-04-30T00:04:41.801Z,88.00
2023-04-30T00:07:08.616Z,88.10
2023-04-30T00:09:35.693Z,88.00
2023-04-30T00:12:02.493Z,88.60
2023-04-30T00:14:29.267Z,89.00
2023-04-30T00:16:56.101Z,88.90
2023-04-30T00:19:22.953Z,88.70
2023-04-30T00:21:49.741Z,88.50
2023-04-30T00:24:16.547Z,88.50
2023-04-30T00:26:43.981Z,87.80
2023-04-30T00:29:12.330Z,87.60
2023-04-30T00:31:39.447Z,87.50
2023-04-30T00:34:06.270Z,88.00
2023-04-30T00:36:33.355Z,87.90
2023-04-30T00:39:00.163Z,88.20
2023-04-30T00:41:28.427Z,88.30
2023-04-30T00:43:55.259Z,88.40
2023-04-30T00:46:22.240Z,88.10
2023-04-30T00:48:49.855Z,87.70
2023-04-30T00:51:16.757Z,88.90
2023-04-30T00:53:44.185Z,88.80
2023-04-30T00:56:11.164Z,88.70
2023-04-30T00:58:38.052Z,89.00
2023-04-30T01:01:05.085Z,88.70
2023-04-30T01:03:32.230Z,89.00
2023-04-30T01:05:59.155Z,88.70
2023-04-30T01:08:26.392Z,88.70
2023-04-30T01:11:21.547Z,88.40
2023-04-30T01:14:08.235Z,88.10
2023-04-30T01:16:52.494Z,88.70
2023-04-30T01:19:31.098Z,89.00
2023-04-30T01:22:04.443Z,88.70
2023-04-30T01:24:59.558Z,89.10
2023-04-30T01:28:02.617Z,89.30
2023-04-30T01:30:31.826Z,89.70
2023-04-30T01:32:59.193Z,89.90
2023-04-30T01:35:41.378Z,89.90
2023-04-30T01:38:25.050Z,89.70
2023-04-30T01:41:01.351Z,90.40
2023-04-30T01:43:39.893Z,90.50
2023-04-30T01:46:18.603Z,90.40
2023-04-30T01:49:10.912Z,90.80
2023-04-30T01:51:47.214Z,90.40
2023-04-30T01:54:32.229Z,90.40
2023-04-30T01:57:27.755Z,90.00
2023-04-30T01:59:54.917Z,90.10
2023-04-30T02:02:22.128Z,90.10
2023-04-30T02:04:49.003Z,90.40
2023-04-30T02:07:38.184Z,90.50
2023-04-30T02:10:06.576Z,90.20
2023-04-30T02:12:33.451Z,90.20
2023-04-30T02:15:00.490Z,90.10
2023-04-30T02:17:27.281Z,89.90
2023-04-30T02:19:54.133Z,90.20
2023-04-30T02:22:21.139Z,90.40
2023-04-30T02:24:47.993Z,90.60
2023-04-30T02:27:14.929Z,90.50
2023-04-30T02:29:41.794Z,90.50
2023-04-30T02:32:09.027Z,90.40
2023-04-30T02:34:35.888Z,90.40
2023-04-30T02:37:03.289Z,90.60
2023-04-30T02:39:30.051Z,90.50
2023-04-30T02:41:56.893Z,91.10
2023-04-30T02:44:24.357Z,91.00
2023-04-30T02:46:51.245Z,92.00
2023-04-30T02:52:20.168Z,92.00
2023-04-30T02:54:46.951Z,91.30
2023-04-30T02:57:13.762Z,92.30
2023-04-30T02:59:40.616Z,91.70
2023-04-30T03:02:07.410Z,92.00
2023-04-30T03:04:34.171Z,92.40
2023-04-30T03:07:01.076Z,92.60
2023-04-30T03:09:28.035Z,92.60
2023-04-30T03:11:54.822Z,92.70
2023-04-30T03:14:21.539Z,92.40
2023-04-30T03:16:48.459Z,93.10
2023-04-30T03:19:15.275Z,92.60
2023-04-30T03:21:42.043Z,92.70
2023-04-30T03:24:08.856Z,92.30
2023-04-30T03:26:35.730Z,92.30
2023-04-30T03:29:02.548Z,92.90
2023-04-30T03:31:29.396Z,92.40
2023-04-30T03:33:56.269Z,92.20
2023-04-30T03:36:23.075Z,92.60
2023-04-30T03:38:49.954Z,92.10
2023-04-30T03:41:16.786Z,93.00
2023-04-30T03:44:22.489Z,92.80
2023-04-30T03:46:49.425Z,92.20
2023-04-30T03:49:16.354Z,92.40
2023-04-30T03:51:43.187Z,92.60
2023-04-30T03:54:10.234Z,92.40
2023-04-30T03:56:38.072Z,92.10
2023-04-30T03:59:06.160Z,91.80
2023-04-30T04:01:33.226Z,92.80
2023-04-30T04:04:00.156Z,92.60
2023-04-30T04:06:26.997Z,91.90
2023-04-30T04:08:54.341Z,92.20
2023-04-30T04:14:24.588Z,91.70
2023-04-30T04:16:51.567Z,91.40
2023-04-30T04:19:18.507Z,91.10
2023-04-30T04:21:45.395Z,91.40
2023-04-30T04:24:12.431Z,91.80
2023-04-30T04:26:39.179Z,91.60
2023-04-30T04:29:06.361Z,90.90
2023-04-30T04:31:33.260Z,91.40
2023-04-30T04:34:04.451Z,91.60
2023-04-30T04:36:33.400Z,92.40
2023-04-30T04:39:03.904Z,92.00
2023-04-30T04:41:32.775Z,90.90
2023-04-30T04:44:01.761Z,91.60
2023-04-30T04:46:29.595Z,90.70
2023-04-30T04:48:56.555Z,89.90
2023-04-30T04:51:23.543Z,89.80
2023-04-30T04:53:50.887Z,89.10
2023-04-30T04:56:17.659Z,89.30
2023-04-30T04:58:45.674Z,88.30
2023-04-30T05:01:12.484Z,87.10
2023-04-30T05:03:39.446Z,85.40
2023-04-30T05:06:06.437Z,84.90
2023-04-30T05:08:33.364Z,83.20
2023-04-30T05:11:00.131Z,82.80
2023-04-30T05:14:00.853Z,82.70
2023-04-30T05:16:27.746Z,81.40
2023-04-30T05:18:54.631Z,81.50
2023-04-30T05:21:21.439Z,80.50
2023-04-30T05:23:48.204Z,80.40
2023-04-30T05:26:15.155Z,80.10
2023-04-30T05:28:42.042Z,79.30
2023-04-30T05:31:08.929Z,78.10
2023-04-30T05:33:37.149Z,77.40
2023-04-30T05:36:04.150Z,77.10
2023-04-30T05:38:30.995Z,77.20
2023-04-30T05:40:57.829Z,76.50
2023-04-30T05:43:24.724Z,76.40
2023-04-30T05:45:51.482Z,75.80
2023-04-30T05:48:18.323Z,76.30
2023-04-30T05:50:45.127Z,75.30
2023-04-30T05:53:11.957Z,74.90
2023-04-30T05:55:39.027Z,74.60
2023-04-30T05:58:06.420Z,74.90
2023-04-30T06:00:33.258Z,75.10
2023-04-30T06:03:00.000Z,73.40
2023-04-30T06:05:27.665Z,73.80
2023-04-30T06:07:54.498Z,73.30
2023-04-30T06:10:21.350Z,72.50
2023-04-30T06:12:48.387Z,73.30
2023-04-30T06:15:15.370Z,72.30
2023-04-30T06:17:42.121Z,71.10
2023-04-30T06:20:09.601Z,69.50
2023-04-30T06:22:36.433Z,69.20
2023-04-30T06:25:03.592Z,69.80
2023-04-30T06:27:32.210Z,68.20
2023-04-30T06:30:00.981Z,67.50
2023-04-30T06:32:28.127Z,66.20
2023-04-30T06:34:55.656Z,65.90
2023-04-30T06:37:22.565Z,65.40
2023-04-30T06:39:49.695Z,64.00
2023-04-30T06:42:16.444Z,61.30
2023-04-30T06:44:43.322Z,62.10
2023-04-30T06:47:10.081Z,61.20
2023-04-30T06:49:36.879Z,59.20
2023-04-30T06:52:04.521Z,59.50
2023-04-30T06:54:31.369Z,58.60
2023-04-30T06:56:58.140Z,59.10
2023-04-30T06:59:24.911Z,59.20
2023-04-30T07:01:51.775Z,56.70
2023-04-30T07:04:19.580Z,54.80
2023-04-30T07:06:46.573Z,53.90
2023-04-30T07:09:15.640Z,51.80
2023-04-30T07:11:42.862Z,55.10
2023-04-30T07:14:09.589Z,53.70
2023-04-30T07:16:36.367Z,53.40
2023-04-30T07:19:03.392Z,53.00
2023-04-30T07:22:30.568Z,50.60
2023-04-30T07:24:57.654Z,50.60
2023-04-30T07:27:24.449Z,49.20
2023-04-30T07:29:51.932Z,52.90
2023-04-30T07:32:18.792Z,52.00
2023-04-30T07:34:45.584Z,54.20
2023-04-30T07:37:13.404Z,55.30
2023-04-30T07:39:40.450Z,56.20
2023-04-30T07:42:07.258Z,60.00
2023-04-30T07:44:33.998Z,59.80
2023-04-30T07:47:00.841Z,53.90
2023-04-30T07:49:28.212Z,51.90
2023-04-30T07:51:55.083Z,52.50
2023-04-30T07:54:22.015Z,49.90
2023-04-30T07:56:48.986Z,52.00
2023-04-30T07:59:16.021Z,50.50
2023-04-30T08:01:42.900Z,51.80
2023-04-30T08:04:09.781Z,57.00
2023-04-30T08:06:36.801Z,56.00
2023-04-30T08:09:04.615Z,54.10
2023-04-30T08:11:34.720Z,50.60
2023-04-30T08:14:01.607Z,51.10
2023-04-30T08:16:28.414Z,53.10
2023-04-30T08:18:55.319Z,52.60
2023-04-30T08:21:22.146Z,57.40
2023-04-30T08:23:49.805Z,56.10
2023-04-30T08:26:16.684Z,54.10
2023-04-30T08:28:43.499Z,52.20
2023-04-30T08:31:10.427Z,50.40
2023-04-30T08:33:37.313Z,47.70
2023-04-30T08:36:04.403Z,50.50
2023-04-30T08:38:31.153Z,52.00
2023-04-30T08:41:13.063Z,52.40
2023-04-30T08:43:41.361Z,54.50
2023-04-30T08:46:08.666Z,51.40
2023-04-30T08:48:35.765Z,51.30
2023-04-30T08:51:03.944Z,49.80
2023-04-30T08:53:42.098Z,50.40
2023-04-30T08:56:11.308Z,48.70
2023-04-30T08:58:38.083Z,49.10
2023-04-30T09:01:07.838Z,46.90
2023-04-30T09:03:34.929Z,48.40
2023-04-30T09:06:01.774Z,48.80
2023-04-30T09:08:45.303Z,48.00
2023-04-30T09:11:24.423Z,47.00
2023-04-30T09:13:57.331Z,47.50
2023-04-30T09:16:25.883Z,45.80
2023-04-30T09:18:54.150Z,45.40
2023-04-30T09:21:35.112Z,46.90
2023-04-30T09:24:03.878Z,43.70
2023-04-30T09:26:38.955Z,46.00
2023-04-30T09:29:10.310Z,45.00
2023-04-30T09:31:38.683Z,45.40
2023-04-30T09:34:06.221Z,44.80
2023-04-30T09:36:34.347Z,44.80
2023-04-30T09:39:15.816Z,44.80
2023-04-30T09:41:43.830Z,42.40
2023-04-30T09:44:30.649Z,42.40
2023-04-30T09:46:58.684Z,43.00
2023-04-30T09:49:27.129Z,41.70
2023-04-30T09:52:03.268Z,40.90
2023-04-30T09:54:31.466Z,42.30
2023-04-30T09:57:00.133Z,44.00
2023-04-30T09:59:31.496Z,44.20
2023-04-30T10:02:08.816Z,43.70
2023-04-30T10:04:42.826Z,41.60
2023-04-30T10:07:14.066Z,41.00
2023-04-30T10:09:52.891Z,44.80
2023-04-30T10:12:39.960Z,42.60
2023-04-30T10:15:16.637Z,43.30
2023-04-30T10:17:47.636Z,48.50
2023-04-30T10:20:17.444Z,47.30
2023-04-30T10:22:46.266Z,48.50
2023-04-30T10:25:13.577Z,46.10
2023-04-30T10:27:40.689Z,43.70
2023-04-30T10:30:10.717Z,43.10
2023-04-30T10:33:16.966Z,42.60
2023-04-30T10:35:52.921Z,40.90
2023-04-30T10:38:25.168Z,42.30
2023-04-30T10:41:06.230Z,46.10
2023-04-30T10:43:35.876Z,43.10
2023-04-30T10:46:02.890Z,42.30
2023-04-30T10:48:31.150Z,43.80
2023-04-30T10:50:59.273Z,44.90
2023-04-30T10:53:27.948Z,44.90
2023-04-30T10:56:02.013Z,44.90
2023-04-30T10:58:36.296Z,44.20
2023-04-30T11:01:09.152Z,44.70
2023-04-30T11:03:37.451Z,42.80
2023-04-30T11:06:14.854Z,40.90
2023-04-30T11:08:46.831Z,38.70
2023-04-30T11:11:23.851Z,42.60
2023-04-30T11:14:01.678Z,41.00
2023-04-30T11:16:34.707Z,42.40
2023-04-30T11:19:11.929Z,42.30
2023-04-30T11:22:00.827Z,39.80
2023-04-30T11:25:05.782Z,42.20
2023-04-30T11:27:34.315Z,40.50
2023-04-30T11:30:02.969Z,43.50
2023-04-30T11:32:34.857Z,41.40
2023-04-30T11:35:07.456Z,39.20
2023-04-30T11:37:39.797Z,40.60
2023-04-30T11:40:11.463Z,40.30
2023-04-30T11:42:46.042Z,39.20
2023-04-30T11:45:20.968Z,41.00
2023-04-30T11:47:50.494Z,40.80
2023-04-30T11:50:28.848Z,42.00
2023-04-30T11:52:57.735Z,40.40
2023-04-30T11:55:26.240Z,39.50
2023-04-30T11:57:55.717Z,39.40
2023-04-30T12:00:28.153Z,41.30
2023-04-30T12:02:55.767Z,41.20
2023-04-30T12:05:24.945Z,40.70
2023-04-30T12:07:56.983Z,40.40
2023-04-30T12:10:25.790Z,40.10
2023-04-30T12:12:54.604Z,40.90
2023-04-30T12:15:26.711Z,40.50
2023-04-30T12:17:56.203Z,41.20
2023-04-30T12:20:25.873Z,40.60
2023-04-30T12:22:53.055Z,41.20
2023-04-30T12:25:21.956Z,40.10
2023-04-30T12:27:53.279Z,40.10
2023-04-30T12:30:21.629Z,40.10
2023-04-30T12:32:53.600Z,39.80
2023-04-30T12:35:22.541Z,40.40
2023-04-30T12:37:54.087Z,39.90
2023-04-30T12:40:26.703Z,39.80
2023-04-30T12:43:04.255Z,39.90
2023-04-30T12:45:51.512Z,39.20
2023-04-30T12:48:20.723Z,39.30
2023-04-30T12:50:55.230Z,39.00
2023-04-30T12:53:23.689Z,39.20
2023-04-30T12:56:29.120Z,39.60
2023-04-30T12:58:56.000Z,38.40
2023-04-30T13:01:24.521Z,36.90
2023-04-30T13:03:52.796Z,39.40
2023-04-30T13:06:22.594Z,38.40
2023-04-30T13:08:58.467Z,40.30
2023-04-30T13:11:26.889Z,38.40
2023-04-30T13:13:56.969Z,40.30
2023-04-30T13:16:27.342Z,38.90
2023-04-30T13:18:54.717Z,40.50
2023-04-30T13:21:21.735Z,39.90
2023-04-30T13:23:53.405Z,42.20
2023-04-30T13:26:23.323Z,40.00
2023-04-30T13:28:50.577Z,39.40
2023-04-30T13:31:17.520Z,38.00
2023-04-30T13:33:44.422Z,38.90
2023-04-30T13:36:11.283Z,38.10
2023-04-30T13:38:39.305Z,39.20
2023-04-30T13:41:09.726Z,41.00
2023-04-30T13:43:41.472Z,40.10
2023-04-30T13:46:09.334Z,39.90
2023-04-30T13:48:36.258Z,38.80
2023-04-30T13:51:03.031Z,40.50
2023-04-30T13:53:29.838Z,38.90
2023-04-30T13:55:59.237Z,39.70
2023-04-30T13:58:26.436Z,38.40
2023-04-30T14:00:53.365Z,39.80
2023-04-30T14:03:20.294Z,39.50
2023-04-30T14:05:48.035Z,40.00
2023-04-30T14:08:14.828Z,39.10
2023-04-30T14:10:41.607Z,40.50
2023-04-30T14:13:08.616Z,38.60
2023-04-30T14:15:35.767Z,39.80
2023-04-30T14:18:02.661Z,39.20
2023-04-30T14:20:29.457Z,40.00
2023-04-30T14:22:56.391Z,39.40
2023-04-30T14:25:23.954Z,38.40
2023-04-30T14:27:50.839Z,38.80
2023-04-30T14:30:17.665Z,39.90
2023-04-30T14:32:44.514Z,40.70
2023-04-30T14:35:11.391Z,41.30
2023-04-30T14:37:38.176Z,39.20
2023-04-30T14:40:07.924Z,40.10
2023-04-30T14:42:34.724Z,39.20
2023-04-30T14:45:01.614Z,39.50
2023-04-30T14:47:28.732Z,38.90
2023-04-30T14:49:55.914Z,39.40
2023-04-30T14:52:23.051Z,38.50
2023-04-30T14:54:49.819Z,38.60
2023-04-30T14:57:17.601Z,41.10
2023-04-30T14:59:44.412Z,38.00
2023-04-30T15:02:11.576Z,39.50
2023-04-30T15:04:38.474Z,39.40
2023-04-30T15:07:05.546Z,41.20
2023-04-30T15:09:32.341Z,40.50
2023-04-30T15:12:00.966Z,39.20
2023-04-30T15:14:27.767Z,39.50
2023-04-30T15:16:54.569Z,39.50
2023-04-30T15:19:21.439Z,39.90
2023-04-30T15:21:49.072Z,39.40
2023-04-30T15:24:16.055Z,40.00
2023-04-30T15:26:42.950Z,41.00
2023-04-30T15:29:10.495Z,40.50
2023-04-30T15:31:37.759Z,39.10
2023-04-30T15:34:04.627Z,38.90
2023-04-30T15:36:31.956Z,39.70
2023-04-30T15:38:58.906Z,41.40
2023-04-30T15:41:25.628Z,40.30
2023-04-30T15:43:52.522Z,41.20
2023-04-30T15:46:19.623Z,40.60
2023-04-30T15:48:46.381Z,42.00
2023-04-30T15:51:13.374Z,41.10
2023-04-30T15:53:40.149Z,41.90
2023-04-30T15:56:07.311Z,41.20
2023-04-30T15:58:34.129Z,41.30
2023-04-30T16:01:02.056Z,41.70
2023-04-30T16:03:29.286Z,40.70
2023-04-30T16:05:56.335Z,40.50
2023-04-30T16:08:23.223Z,41.40
2023-04-30T16:10:50.204Z,42.10
2023-04-30T16:13:16.975Z,42.00
2023-04-30T16:15:43.846Z,42.50
2023-04-30T16:18:10.631Z,41.30
2023-04-30T16:20:37.868Z,42.50
2023-04-30T16:23:05.829Z,43.80
2023-04-30T16:25:33.080Z,43.30
2023-04-30T16:27:59.995Z,43.50
2023-04-30T16:30:26.958Z,44.70
2023-04-30T16:32:54.014Z,44.90
2023-04-30T16:35:21.061Z,45.70
2023-04-30T16:37:47.946Z,45.20
2023-04-30T16:40:14.794Z,46.10
2023-04-30T16:42:41.598Z,44.50
2023-04-30T16:45:09.198Z,45.10
2023-04-30T16:47:36.221Z,44.30
2023-04-30T16:50:03.457Z,43.90
2023-04-30T16:52:30.957Z,43.60
2023-04-30T16:54:57.809Z,43.20
2023-04-30T16:57:25.481Z,43.70
2023-04-30T16:59:52.569Z,44.40
2023-04-30T17:02:19.535Z,43.70
2023-04-30T17:04:46.466Z,44.70
2023-04-30T17:07:13.614Z,44.80
2023-04-30T17:09:41.694Z,45.30
2023-04-30T17:12:08.629Z,46.00
2023-04-30T17:14:35.405Z,46.50
2023-04-30T17:17:02.383Z,47.10
2023-04-30T17:19:29.183Z,46.00
2023-04-30T17:21:56.182Z,47.30
2023-04-30T17:24:24.184Z,48.80
2023-04-30T17:26:51.530Z,48.90
2023-04-30T17:29:19.748Z,48.80
2023-04-30T17:31:47.263Z,48.70
2023-04-30T17:34:14.246Z,49.10
2023-04-30T17:36:42.000Z,51.10
2023-04-30T17:39:09.018Z,50.70
2023-04-30T17:41:35.966Z,50.70
2023-04-30T17:44:02.869Z,51.80
2023-04-30T17:46:29.651Z,52.20
2023-04-30T17:48:56.797Z,52.30
2023-04-30T17:51:24.062Z,54.00
2023-04-30T17:53:50.867Z,55.00
2023-04-30T17:56:17.731Z,54.80
2023-04-30T17:58:45.782Z,54.70
2023-04-30T18:01:13.419Z,55.10
2023-04-30T18:03:40.561Z,56.10
2023-04-30T18:06:07.588Z,55.00
2023-04-30T18:08:34.485Z,55.90
2023-04-30T18:11:03.889Z,55.70
2023-04-30T18:13:31.437Z,55.70
2023-04-30T18:15:58.494Z,56.90
2023-04-30T18:18:25.362Z,56.50
2023-04-30T18:20:53.093Z,56.80
2023-04-30T18:23:20.823Z,57.20
2023-04-30T18:25:48.013Z,57.00
2023-04-30T18:28:15.405Z,58.00
2023-04-30T18:30:42.168Z,57.90
2023-04-30T18:33:09.024Z,58.10
2023-04-30T18:35:36.365Z,57.50
2023-04-30T18:38:03.184Z,58.50
2023-04-30T18:40:30.985Z,58.80
2023-04-30T18:42:57.815Z,59.00
2023-04-30T18:45:24.690Z,58.90
2023-04-30T18:47:51.941Z,59.50
2023-04-30T18:50:19.560Z,61.30
2023-04-30T18:52:46.583Z,60.50
2023-04-30T18:55:14.178Z,60.70
2023-04-30T18:57:42.579Z,61.40
2023-04-30T19:00:10.796Z,61.70
2023-04-30T19:02:37.843Z,62.00
2023-04-30T19:05:05.206Z,61.70
2023-04-30T19:07:32.033Z,62.20
2023-04-30T19:09:58.976Z,62.80
2023-04-30T19:12:26.046Z,62.70
2023-04-30T19:14:52.901Z,64.40
2023-04-30T19:17:21.883Z,64.20
2023-04-30T19:19:50.092Z,64.60
2023-04-30T19:22:17.453Z,65.70
2023-04-30T19:24:44.359Z,66.50
2023-04-30T19:27:12.006Z,67.00
2023-04-30T19:29:39.555Z,67.80
2023-04-30T19:32:06.749Z,66.90
2023-04-30T19:34:34.472Z,67.20
2023-04-30T19:37:02.425Z,67.70
2023-04-30T19:39:31.484Z,67.90
2023-04-30T19:41:58.887Z,67.90
2023-04-30T19:44:26.058Z,69.40
2023-04-30T19:46:52.949Z,68.70
2023-04-30T19:49:19.719Z,70.60
2023-04-30T19:51:46.531Z,69.40
2023-04-30T19:54:14.412Z,70.50
2023-04-30T19:56:41.833Z,70.50
2023-04-30T19:59:09.345Z,71.10
2023-04-30T20:01:39.588Z,72.00
2023-04-30T20:04:06.874Z,70.90
2023-04-30T20:06:33.913Z,72.10
2023-04-30T20:09:01.648Z,73.80
2023-04-30T20:11:28.467Z,74.30
2023-04-30T20:13:56.292Z,74.50
2023-04-30T20:16:23.281Z,73.80
2023-04-30T20:18:50.121Z,74.70
2023-04-30T20:21:18.657Z,74.60
2023-04-30T20:23:47.233Z,75.70
2023-04-30T20:26:14.001Z,75.00
2023-04-30T20:28:40.847Z,75.90
2023-04-30T20:31:09.662Z,76.10
2023-04-30T20:33:36.544Z,75.30
2023-04-30T20:36:03.469Z,76.00
2023-04-30T20:38:30.329Z,76.60
2023-04-30T20:40:58.491Z,76.20
2023-04-30T20:43:25.319Z,77.10
2023-04-30T20:45:52.127Z,76.50
2023-04-30T20:48:19.057Z,77.90
2023-04-30T20:50:46.220Z,77.90
2023-04-30T20:53:14.207Z,78.00
2023-04-30T20:55:41.205Z,78.50
2023-04-30T20:58:09.102Z,78.60
2023-04-30T21:00:36.379Z,78.80
2023-04-30T21:03:03.404Z,78.80
2023-04-30T21:05:30.340Z,79.60
2023-04-30T21:08:01.259Z,79.20
2023-04-30T21:10:35.282Z,80.10
2023-04-30T21:13:05.152Z,80.90
2023-04-30T21:15:34.315Z,81.60
2023-04-30T21:18:01.326Z,81.00
2023-04-30T21:20:28.308Z,80.60
2023-04-30T21:22:56.539Z,81.40
2023-04-30T21:25:23.543Z,81.00
2023-04-30T21:27:50.447Z,80.50
2023-04-30T21:30:17.401Z,81.70
2023-04-30T21:32:48.059Z,82.50
2023-04-30T21:35:15.454Z,80.90
2023-04-30T21:37:42.447Z,81.70
2023-04-30T21:40:09.724Z,82.60
2023-04-30T21:42:36.651Z,82.60
2023-04-30T21:45:03.661Z,82.60
2023-04-30T21:47:30.793Z,82.70
2023-04-30T21:49:58.951Z,82.30
2023-04-30T21:52:26.166Z,82.90
2023-04-30T21:54:52.968Z,84.30
2023-04-30T21:57:19.734Z,84.70
2023-04-30T21:59:46.538Z,84.40
2023-04-30T22:04:47.596Z,84.50
2023-04-30T22:07:14.446Z,85.30
2023-04-30T22:09:41.224Z,85.40
2023-04-30T22:12:09.256Z,84.70
2023-04-30T22:14:36.065Z,84.20
2023-04-30T22:17:02.830Z,84.50
2023-04-30T22:19:29.652Z,85.80
2023-04-30T22:21:56.476Z,86.60
2023-04-30T22:24:23.332Z,86.00
2023-04-30T22:26:50.271Z,85.30
2023-04-30T22:29:17.074Z,85.80
2023-04-30T22:31:43.992Z,86.20
2023-04-30T22:34:11.567Z,86.10
2023-04-30T22:36:38.313Z,85.90
2023-04-30T22:39:05.143Z,86.40
2023-04-30T22:41:34.670Z,86.10
2023-04-30T22:44:01.729Z,86.60
2023-04-30T22:46:30.046Z,85.90
2023-04-30T22:48:57.655Z,85.90
2023-04-30T22:51:24.517Z,86.50
2023-04-30T22:53:51.653Z,86.20
2023-04-30T22:56:18.529Z,86.80
2023-04-30T22:58:45.315Z,87.20
2023-04-30T23:01:12.325Z,86.70
2023-04-30T23:03:39.303Z,86.80
2023-04-30T23:06:06.274Z,87.70
2023-04-30T23:08:33.158Z,88.20
2023-04-30T23:11:00.451Z,88.50
2023-04-30T23:13:27.201Z,89.20
2023-04-30T23:15:58.679Z,89.10
2023-04-30T23:18:26.184Z,88.80
2023-04-30T23:20:58.774Z,88.50
2023-04-30T23:23:26.611Z,88.60
2023-04-30T23:25:54.628Z,89.40
2023-04-30T23:28:21.865Z,88.90
2023-04-30T23:30:52.191Z,89.40
2023-04-30T23:33:19.754Z,89.10
2023-04-30T23:35:47.064Z,89.20
2023-04-30T23:38:14.832Z,88.90
2023-04-30T23:40:42.592Z,89.50
2023-04-30T23:43:10.136Z,89.20
2023-04-30T23:45:41.295Z,89.10
2023-04-30T23:48:09.143Z,88.40
2023-04-30T23:50:37.879Z,88.70
2023-04-30T23:53:04.719Z,88.50
2023-04-30T23:55:31.550Z,88.70
2023-04-30T23:57:58.434Z,88.70
